sensor_id;sensor_type;location;lat;lon;timestamp;temperature;humidity
23120;DHT22;11729;50.836;4.330;2023-05-20T00:01:42;15.20;99.90
23120;DHT22;11729;50.836;4.330;2023-05-20T00:04:07;15.20;99.90
23120;DHT22;11729;50.836;4.330;2023-05-20T00:06:33;15.30;99.90
23120;DHT22;11729;50.836;4.330;2023-05-20T00:08:59;15.40;99.90
23120;DHT22;11729;50.836;4.330;2023-05-20T00:11:25;15.20;99.90
23120;DHT22;11729;50.836;4.330;2023-05-20T00:13:50;15.20;99.90
23120;DHT22;11729;50.836;4.330;2023-05-20T00:16:17;15.20;99.90
23120;DHT22;11729;50.836;4.330;2023-05-20T00:18:43;15.20;99.90
23120;DHT22;11729;50.836;4.330;2023-05-20T00:21:14;15.30;99.90
23120;DHT22;11729;50.836;4.330;2023-05-20T00:23:40;15.10;99.90
23120;DHT22;11729;50.836;4.330;2023-05-20T00:26:08;15.10;99.90
23120;DHT22;11729;50.836;4.330;2023-05-20T00:28:35;15.10;99.90
23120;DHT22;11729;50.836;4.330;2023-05-20T00:31:01;15.20;99.90
23120;DHT22;11729;50.836;4.330;2023-05-20T00:33:26;15.20;99.90
23120;DHT22;11729;50.836;4.330;2023-05-20T00:35:52;15.20;99.90
23120;DHT22;11729;50.836;4.330;2023-05-20T00:38:17;15.10;99.90
23120;DHT22;11729;50.836;4.330;2023-05-20T00:40:43;14.90;99.90
23120;DHT22;11729;50.836;4.330;2023-05-20T00:43:09;14.80;99.90
23120;DHT22;11729;50.836;4.330;2023-05-20T00:45:36;14.80;99.90
23120;DHT22;11729;50.836;4.330;2023-05-20T00:48:02;14.80;99.90
23120;DHT22;11729;50.836;4.330;2023-05-20T00:50:28;14.80;99.90
23120;DHT22;11729;50.836;4.330;2023-05-20T00:52:54;14.80;99.90
23120;DHT22;11729;50.836;4.330;2023-05-20T00:55:23;14.80;99.90
23120;DHT22;11729;50.836;4.330;2023-05-20T00:57:50;14.90;99.90
23120;DHT22;11729;50.836;4.330;2023-05-20T01:00:16;14.90;99.90
23120;DHT22;11729;50.836;4.330;2023-05-20T01:02:42;14.90;99.90
23120;DHT22;11729;50.836;4.330;2023-05-20T01:05:07;14.80;99.90
23120;DHT22;11729;50.836;4.330;2023-05-20T01:07:33;14.70;99.90
23120;DHT22;11729;50.836;4.330;2023-05-20T01:09:59;14.80;99.90
23120;DHT22;11729;50.836;4.330;2023-05-20T01:12:27;14.70;99.90
23120;DHT22;11729;50.836;4.330;2023-05-20T01:15:04;14.70;99.90
23120;DHT22;11729;50.836;4.330;2023-05-20T01:17:31;14.40;99.90
23120;DHT22;11729;50.836;4.330;2023-05-20T01:19:58;14.40;99.90
23120;DHT22;11729;50.836;4.330;2023-05-20T01:22:26;14.30;99.90
23120;DHT22;11729;50.836;4.330;2023-05-20T01:24:52;14.40;99.90
23120;DHT22;11729;50.836;4.330;2023-05-20T01:27:19;14.50;99.90
23120;DHT22;11729;50.836;4.330;2023-05-20T01:29:48;14.40;99.90
23120;DHT22;11729;50.836;4.330;2023-05-20T01:32:37;14.30;99.90
23120;DHT22;11729;50.836;4.330;2023-05-20T01:35:03;14.30;99.90
23120;DHT22;11729;50.836;4.330;2023-05-20T01:37:30;14.40;99.90
23120;DHT22;11729;50.836;4.330;2023-05-20T01:39:57;14.40;99.90
23120;DHT22;11729;50.836;4.330;2023-05-20T01:42:25;14.30;99.90
23120;DHT22;11729;50.836;4.330;2023-05-20T01:44:51;14.20;99.90
23120;DHT22;11729;50.836;4.330;2023-05-20T01:47:16;14.20;99.90
23120;DHT22;11729;50.836;4.330;2023-05-20T01:49:42;14.10;99.90
23120;DHT22;11729;50.836;4.330;2023-05-20T01:52:11;14.10;99.90
23120;DHT22;11729;50.836;4.330;2023-05-20T01:54:38;14.00;99.90
23120;DHT22;11729;50.836;4.330;2023-05-20T01:57:04;14.00;99.90
23120;DHT22;11729;50.836;4.330;2023-05-20T01:59:32;14.10;99.90
23120;DHT22;11729;50.836;4.330;2023-05-20T02:01:58;14.20;99.90
23120;DHT22;11729;50.836;4.330;2023-05-20T02:04:24;14.00;99.90
23120;DHT22;11729;50.836;4.330;2023-05-20T02:06:49;13.90;99.90
23120;DHT22;11729;50.836;4.330;2023-05-20T02:09:15;14.00;99.90
23120;DHT22;11729;50.836;4.330;2023-05-20T02:11:42;14.00;99.90
23120;DHT22;11729;50.836;4.330;2023-05-20T02:14:08;14.00;99.90
23120;DHT22;11729;50.836;4.330;2023-05-20T02:16:33;13.90;99.90
23120;DHT22;11729;50.836;4.330;2023-05-20T02:18:59;13.90;99.90
23120;DHT22;11729;50.836;4.330;2023-05-20T02:21:26;14.00;99.90
23120;DHT22;11729;50.836;4.330;2023-05-20T02:23:52;13.80;99.90
23120;DHT22;11729;50.836;4.330;2023-05-20T02:26:17;13.80;99.90
23120;DHT22;11729;50.836;4.330;2023-05-20T02:28:45;14.00;99.90
23120;DHT22;11729;50.836;4.330;2023-05-20T02:31:14;13.90;99.90
23120;DHT22;11729;50.836;4.330;2023-05-20T02:33:40;13.80;99.90
23120;DHT22;11729;50.836;4.330;2023-05-20T02:36:06;13.60;99.90
23120;DHT22;11729;50.836;4.330;2023-05-20T02:38:32;13.70;99.90
23120;DHT22;11729;50.836;4.330;2023-05-20T02:40:57;13.60;99.90
23120;DHT22;11729;50.836;4.330;2023-05-20T02:43:24;13.60;99.90
23120;DHT22;11729;50.836;4.330;2023-05-20T02:45:50;13.60;99.90
23120;DHT22;11729;50.836;4.330;2023-05-20T02:48:16;13.50;99.90
23120;DHT22;11729;50.836;4.330;2023-05-20T02:50:41;13.60;99.90
23120;DHT22;11729;50.836;4.330;2023-05-20T02:53:08;13.50;99.90
23120;DHT22;11729;50.836;4.330;2023-05-20T02:55:34;13.50;99.90
23120;DHT22;11729;50.836;4.330;2023-05-20T02:58:00;13.50;99.90
23120;DHT22;11729;50.836;4.330;2023-05-20T03:00:26;13.50;99.90
23120;DHT22;11729;50.836;4.330;2023-05-20T03:02:54;13.50;99.90
23120;DHT22;11729;50.836;4.330;2023-05-20T03:05:20;13.60;99.90
23120;DHT22;11729;50.836;4.330;2023-05-20T03:07:47;13.50;99.90
23120;DHT22;11729;50.836;4.330;2023-05-20T03:10:13;13.50;99.90
23120;DHT22;11729;50.836;4.330;2023-05-20T03:12:39;13.50;99.90
23120;DHT22;11729;50.836;4.330;2023-05-20T03:15:06;13.40;99.90
23120;DHT22;11729;50.836;4.330;2023-05-20T03:17:32;13.40;99.90
23120;DHT22;11729;50.836;4.330;2023-05-20T03:19:57;13.30;99.90
23120;DHT22;11729;50.836;4.330;2023-05-20T03:22:24;13.30;99.90
23120;DHT22;11729;50.836;4.330;2023-05-20T03:24:50;13.30;99.90
23120;DHT22;11729;50.836;4.330;2023-05-20T03:27:17;13.20;99.90
23120;DHT22;11729;50.836;4.330;2023-05-20T03:29:43;13.20;99.90
23120;DHT22;11729;50.836;4.330;2023-05-20T03:32:08;13.30;99.90
23120;DHT22;11729;50.836;4.330;2023-05-20T03:34:34;13.30;99.90
23120;DHT22;11729;50.836;4.330;2023-05-20T03:37:00;13.30;99.90
23120;DHT22;11729;50.836;4.330;2023-05-20T03:39:25;13.20;99.90
23120;DHT22;11729;50.836;4.330;2023-05-20T03:41:51;13.20;99.90
23120;DHT22;11729;50.836;4.330;2023-05-20T03:44:17;13.20;99.90
23120;DHT22;11729;50.836;4.330;2023-05-20T03:46:44;13.20;99.90
23120;DHT22;11729;50.836;4.330;2023-05-20T03:49:09;13.20;99.90
23120;DHT22;11729;50.836;4.330;2023-05-20T03:51:35;13.10;99.90
23120;DHT22;11729;50.836;4.330;2023-05-20T03:54:00;13.00;99.90
23120;DHT22;11729;50.836;4.330;2023-05-20T03:56:26;13.00;99.90
23120;DHT22;11729;50.836;4.330;2023-05-20T03:58:52;13.10;99.90
23120;DHT22;11729;50.836;4.330;2023-05-20T04:01:18;13.10;99.90
23120;DHT22;11729;50.836;4.330;2023-05-20T04:03:45;13.20;99.90
23120;DHT22;11729;50.836;4.330;2023-05-20T04:06:12;13.00;99.90
23120;DHT22;11729;50.836;4.330;2023-05-20T04:08:38;13.10;99.90
23120;DHT22;11729;50.836;4.330;2023-05-20T04:11:03;13.10;99.90
23120;DHT22;11729;50.836;4.330;2023-05-20T04:13:30;13.00;99.90
23120;DHT22;11729;50.836;4.330;2023-05-20T04:15:56;12.90;99.90
23120;DHT22;11729;50.836;4.330;2023-05-20T04:18:22;13.00;99.90
23120;DHT22;11729;50.836;4.330;2023-05-20T04:20:47;13.10;99.90
23120;DHT22;11729;50.836;4.330;2023-05-20T04:23:13;13.30;99.90
23120;DHT22;11729;50.836;4.330;2023-05-20T04:25:38;13.20;99.90
23120;DHT22;11729;50.836;4.330;2023-05-20T04:28:06;13.30;99.90
23120;DHT22;11729;50.836;4.330;2023-05-20T04:30:33;13.10;99.90
23120;DHT22;11729;50.836;4.330;2023-05-20T04:32:59;13.10;99.90
23120;DHT22;11729;50.836;4.330;2023-05-20T04:35:27;13.30;99.90
23120;DHT22;11729;50.836;4.330;2023-05-20T04:37:53;13.30;99.90
23120;DHT22;11729;50.836;4.330;2023-05-20T04:40:19;13.40;99.90
23120;DHT22;11729;50.836;4.330;2023-05-20T04:42:45;13.10;99.90
23120;DHT22;11729;50.836;4.330;2023-05-20T04:45:11;13.10;99.90
23120;DHT22;11729;50.836;4.330;2023-05-20T04:47:38;13.30;99.90
23120;DHT22;11729;50.836;4.330;2023-05-20T04:50:09;13.20;99.90
23120;DHT22;11729;50.836;4.330;2023-05-20T04:52:41;13.20;99.90
23120;DHT22;11729;50.836;4.330;2023-05-20T04:55:08;13.50;99.90
23120;DHT22;11729;50.836;4.330;2023-05-20T04:57:35;13.60;99.90
23120;DHT22;11729;50.836;4.330;2023-05-20T05:00:03;13.60;99.90
23120;DHT22;11729;50.836;4.330;2023-05-20T05:02:32;13.60;99.90
23120;DHT22;11729;50.836;4.330;2023-05-20T05:04:58;13.60;99.90
23120;DHT22;11729;50.836;4.330;2023-05-20T05:07:23;13.60;99.90
23120;DHT22;11729;50.836;4.330;2023-05-20T05:09:49;13.70;99.90
23120;DHT22;11729;50.836;4.330;2023-05-20T05:12:14;13.60;99.90
23120;DHT22;11729;50.836;4.330;2023-05-20T05:14:40;13.60;99.90
23120;DHT22;11729;50.836;4.330;2023-05-20T05:17:06;13.70;99.90
23120;DHT22;11729;50.836;4.330;2023-05-20T05:19:31;13.80;99.90
23120;DHT22;11729;50.836;4.330;2023-05-20T05:21:57;13.80;99.90
23120;DHT22;11729;50.836;4.330;2023-05-20T05:24:23;13.80;99.90
23120;DHT22;11729;50.836;4.330;2023-05-20T05:26:53;14.00;99.90
23120;DHT22;11729;50.836;4.330;2023-05-20T05:29:18;14.10;99.90
23120;DHT22;11729;50.836;4.330;2023-05-20T05:31:44;14.10;99.90
23120;DHT22;11729;50.836;4.330;2023-05-20T05:34:10;14.30;99.90
23120;DHT22;11729;50.836;4.330;2023-05-20T05:36:38;14.30;99.90
23120;DHT22;11729;50.836;4.330;2023-05-20T05:39:04;14.30;99.90
23120;DHT22;11729;50.836;4.330;2023-05-20T05:41:30;14.30;99.90
23120;DHT22;11729;50.836;4.330;2023-05-20T05:43:56;14.30;99.90
23120;DHT22;11729;50.836;4.330;2023-05-20T05:46:22;14.40;99.90
23120;DHT22;11729;50.836;4.330;2023-05-20T05:48:47;14.40;99.90
23120;DHT22;11729;50.836;4.330;2023-05-20T05:51:15;14.80;99.90
23120;DHT22;11729;50.836;4.330;2023-05-20T05:53:40;16.10;99.90
23120;DHT22;11729;50.836;4.330;2023-05-20T05:56:06;17.50;99.90
23120;DHT22;11729;50.836;4.330;2023-05-20T05:58:32;18.90;99.90
23120;DHT22;11729;50.836;4.330;2023-05-20T06:00:58;20.10;99.90
23120;DHT22;11729;50.836;4.330;2023-05-20T06:03:23;20.90;99.90
23120;DHT22;11729;50.836;4.330;2023-05-20T06:05:49;21.20;99.90
23120;DHT22;11729;50.836;4.330;2023-05-20T06:08:15;21.60;99.90
23120;DHT22;11729;50.836;4.330;2023-05-20T06:10:41;22.20;99.90
23120;DHT22;11729;50.836;4.330;2023-05-20T06:13:11;22.40;98.90
23120;DHT22;11729;50.836;4.330;2023-05-20T06:15:39;23.30;96.40
23120;DHT22;11729;50.836;4.330;2023-05-20T06:18:05;23.20;96.20
23120;DHT22;11729;50.836;4.330;2023-05-20T06:20:30;23.60;94.40
23120;DHT22;11729;50.836;4.330;2023-05-20T06:22:56;23.60;93.60
23120;DHT22;11729;50.836;4.330;2023-05-20T06:25:21;24.00;93.10
23120;DHT22;11729;50.836;4.330;2023-05-20T06:27:48;24.50;91.80
23120;DHT22;11729;50.836;4.330;2023-05-20T06:30:13;23.30;91.90
23120;DHT22;11729;50.836;4.330;2023-05-20T06:32:39;23.60;92.40
23120;DHT22;11729;50.836;4.330;2023-05-20T06:35:05;23.90;91.70
23120;DHT22;11729;50.836;4.330;2023-05-20T06:37:33;24.50;90.20
23120;DHT22;11729;50.836;4.330;2023-05-20T06:39:58;25.00;88.10
23120;DHT22;11729;50.836;4.330;2023-05-20T06:42:24;25.40;85.90
23120;DHT22;11729;50.836;4.330;2023-05-20T06:44:49;25.90;82.50
23120;DHT22;11729;50.836;4.330;2023-05-20T06:47:16;25.70;82.60
23120;DHT22;11729;50.836;4.330;2023-05-20T06:49:43;26.30;81.30
23120;DHT22;11729;50.836;4.330;2023-05-20T06:52:08;26.40;79.30
23120;DHT22;11729;50.836;4.330;2023-05-20T06:54:37;27.00;77.80
23120;DHT22;11729;50.836;4.330;2023-05-20T06:57:06;27.60;75.30
23120;DHT22;11729;50.836;4.330;2023-05-20T06:59:32;27.50;73.20
23120;DHT22;11729;50.836;4.330;2023-05-20T07:01:58;27.80;71.50
23120;DHT22;11729;50.836;4.330;2023-05-20T07:04:23;28.30;72.30
23120;DHT22;11729;50.836;4.330;2023-05-20T07:06:49;29.00;68.90
23120;DHT22;11729;50.836;4.330;2023-05-20T07:09:15;28.10;69.70
23120;DHT22;11729;50.836;4.330;2023-05-20T07:11:40;28.20;69.70
23120;DHT22;11729;50.836;4.330;2023-05-20T07:14:06;28.40;68.30
23120;DHT22;11729;50.836;4.330;2023-05-20T07:16:33;28.50;66.90
23120;DHT22;11729;50.836;4.330;2023-05-20T07:18:59;28.10;65.90
23120;DHT22;11729;50.836;4.330;2023-05-20T07:21:26;28.20;66.10
23120;DHT22;11729;50.836;4.330;2023-05-20T07:23:51;28.30;66.90
23120;DHT22;11729;50.836;4.330;2023-05-20T07:26:17;28.50;67.60
23120;DHT22;11729;50.836;4.330;2023-05-20T07:28:43;29.00;64.70
23120;DHT22;11729;50.836;4.330;2023-05-20T07:31:10;28.40;64.60
23120;DHT22;11729;50.836;4.330;2023-05-20T07:33:36;29.40;63.90
23120;DHT22;11729;50.836;4.330;2023-05-20T07:36:01;29.10;63.70
23120;DHT22;11729;50.836;4.330;2023-05-20T07:38:27;29.20;63.00
23120;DHT22;11729;50.836;4.330;2023-05-20T07:40:53;29.00;61.90
23120;DHT22;11729;50.836;4.330;2023-05-20T07:43:18;28.70;63.40
23120;DHT22;11729;50.836;4.330;2023-05-20T07:45:44;28.50;62.70
23120;DHT22;11729;50.836;4.330;2023-05-20T07:48:10;28.30;63.30
23120;DHT22;11729;50.836;4.330;2023-05-20T07:50:37;27.60;64.00
23120;DHT22;11729;50.836;4.330;2023-05-20T07:53:05;26.40;67.10
23120;DHT22;11729;50.836;4.330;2023-05-20T07:55:34;26.60;67.10
23120;DHT22;11729;50.836;4.330;2023-05-20T07:58:03;27.40;67.00
23120;DHT22;11729;50.836;4.330;2023-05-20T08:00:28;28.20;64.60
23120;DHT22;11729;50.836;4.330;2023-05-20T08:02:54;29.00;61.40
23120;DHT22;11729;50.836;4.330;2023-05-20T08:05:20;27.70;62.80
23120;DHT22;11729;50.836;4.330;2023-05-20T08:07:47;27.70;63.20
23120;DHT22;11729;50.836;4.330;2023-05-20T08:10:13;27.80;64.10
23120;DHT22;11729;50.836;4.330;2023-05-20T08:12:38;27.70;64.90
23120;DHT22;11729;50.836;4.330;2023-05-20T08:15:05;27.40;64.10
23120;DHT22;11729;50.836;4.330;2023-05-20T08:17:31;28.30;64.10
23120;DHT22;11729;50.836;4.330;2023-05-20T08:19:58;28.50;62.30
23120;DHT22;11729;50.836;4.330;2023-05-20T08:22:23;28.40;61.10
23120;DHT22;11729;50.836;4.330;2023-05-20T08:24:49;27.70;60.80
23120;DHT22;11729;50.836;4.330;2023-05-20T08:27:15;27.10;65.60
23120;DHT22;11729;50.836;4.330;2023-05-20T08:29:41;27.70;64.40
23120;DHT22;11729;50.836;4.330;2023-05-20T08:32:06;28.10;61.00
23120;DHT22;11729;50.836;4.330;2023-05-20T08:34:32;28.80;61.20
23120;DHT22;11729;50.836;4.330;2023-05-20T08:36:57;28.20;58.80
23120;DHT22;11729;50.836;4.330;2023-05-20T08:39:24;27.40;62.60
23120;DHT22;11729;50.836;4.330;2023-05-20T08:41:51;27.50;61.40
23120;DHT22;11729;50.836;4.330;2023-05-20T08:44:18;27.90;61.50
23120;DHT22;11729;50.836;4.330;2023-05-20T08:46:46;28.40;61.10
23120;DHT22;11729;50.836;4.330;2023-05-20T08:49:12;28.00;59.60
23120;DHT22;11729;50.836;4.330;2023-05-20T08:51:38;27.50;61.30
23120;DHT22;11729;50.836;4.330;2023-05-20T08:54:07;27.30;61.20
23120;DHT22;11729;50.836;4.330;2023-05-20T08:56:34;27.00;61.80
23120;DHT22;11729;50.836;4.330;2023-05-20T08:59:02;26.30;60.50
23120;DHT22;11729;50.836;4.330;2023-05-20T09:01:28;25.70;63.60
23120;DHT22;11729;50.836;4.330;2023-05-20T09:03:54;26.40;65.00
23120;DHT22;11729;50.836;4.330;2023-05-20T09:06:20;26.90;61.70
23120;DHT22;11729;50.836;4.330;2023-05-20T09:08:48;27.00;60.80
23120;DHT22;11729;50.836;4.330;2023-05-20T09:11:15;26.70;63.30
23120;DHT22;11729;50.836;4.330;2023-05-20T09:13:40;26.50;60.60
23120;DHT22;11729;50.836;4.330;2023-05-20T09:16:08;26.10;62.90
23120;DHT22;11729;50.836;4.330;2023-05-20T09:18:37;25.80;63.30
23120;DHT22;11729;50.836;4.330;2023-05-20T09:21:04;26.20;65.60
23120;DHT22;11729;50.836;4.330;2023-05-20T09:23:31;26.70;63.90
23120;DHT22;11729;50.836;4.330;2023-05-20T09:25:59;26.90;62.60
23120;DHT22;11729;50.836;4.330;2023-05-20T09:28:26;26.80;62.40
23120;DHT22;11729;50.836;4.330;2023-05-20T09:30:59;26.90;62.20
23120;DHT22;11729;50.836;4.330;2023-05-20T09:33:29;27.10;60.90
23120;DHT22;11729;50.836;4.330;2023-05-20T09:36:02;27.80;60.50
23120;DHT22;11729;50.836;4.330;2023-05-20T09:38:29;27.90;59.60
23120;DHT22;11729;50.836;4.330;2023-05-20T09:41:02;27.20;60.70
23120;DHT22;11729;50.836;4.330;2023-05-20T09:43:33;27.50;61.20
23120;DHT22;11729;50.836;4.330;2023-05-20T09:45:58;28.20;61.00
23120;DHT22;11729;50.836;4.330;2023-05-20T09:48:26;28.50;60.40
23120;DHT22;11729;50.836;4.330;2023-05-20T09:50:53;28.70;58.90
23120;DHT22;11729;50.836;4.330;2023-05-20T09:53:19;29.00;57.40
23120;DHT22;11729;50.836;4.330;2023-05-20T09:55:46;29.00;56.50
23120;DHT22;11729;50.836;4.330;2023-05-20T09:58:13;28.70;55.90
23120;DHT22;11729;50.836;4.330;2023-05-20T10:00:39;27.50;58.00
23120;DHT22;11729;50.836;4.330;2023-05-20T10:03:05;27.10;58.80
23120;DHT22;11729;50.836;4.330;2023-05-20T10:05:40;26.50;60.30
23120;DHT22;11729;50.836;4.330;2023-05-20T10:22:09;26.30;61.20
23120;DHT22;11729;50.836;4.330;2023-05-20T10:24:38;27.00;62.80
23120;DHT22;11729;50.836;4.330;2023-05-20T10:27:12;27.50;61.70
23120;DHT22;11729;50.836;4.330;2023-05-20T10:29:50;27.30;63.30
23120;DHT22;11729;50.836;4.330;2023-05-20T10:32:25;27.50;59.30
23120;DHT22;11729;50.836;4.330;2023-05-20T10:34:51;27.60;59.20
23120;DHT22;11729;50.836;4.330;2023-05-20T10:37:26;27.20;59.30
23120;DHT22;11729;50.836;4.330;2023-05-20T10:40:09;26.70;62.40
23120;DHT22;11729;50.836;4.330;2023-05-20T10:42:35;26.40;64.60
23120;DHT22;11729;50.836;4.330;2023-05-20T10:45:02;27.00;60.70
23120;DHT22;11729;50.836;4.330;2023-05-20T10:47:30;27.30;63.00
23120;DHT22;11729;50.836;4.330;2023-05-20T10:49:56;27.30;60.50
23120;DHT22;11729;50.836;4.330;2023-05-20T10:52:23;27.40;60.90
23120;DHT22;11729;50.836;4.330;2023-05-20T10:57:18;28.60;61.20
23120;DHT22;11729;50.836;4.330;2023-05-20T10:59:43;28.50;59.50
23120;DHT22;11729;50.836;4.330;2023-05-20T11:02:10;27.60;60.00
23120;DHT22;11729;50.836;4.330;2023-05-20T11:04:37;27.20;60.80
23120;DHT22;11729;50.836;4.330;2023-05-20T11:07:03;27.30;63.20
23120;DHT22;11729;50.836;4.330;2023-05-20T11:09:29;27.10;60.60
23120;DHT22;11729;50.836;4.330;2023-05-20T11:11:56;26.70;60.80
23120;DHT22;11729;50.836;4.330;2023-05-20T11:14:22;26.40;64.30
23120;DHT22;11729;50.836;4.330;2023-05-20T11:16:52;26.60;64.20
23120;DHT22;11729;50.836;4.330;2023-05-20T11:19:21;26.20;64.10
23120;DHT22;11729;50.836;4.330;2023-05-20T11:21:47;26.50;66.40
23120;DHT22;11729;50.836;4.330;2023-05-20T11:24:13;26.90;64.30
23120;DHT22;11729;50.836;4.330;2023-05-20T11:26:39;27.20;64.30
23120;DHT22;11729;50.836;4.330;2023-05-20T11:29:05;27.80;63.80
23120;DHT22;11729;50.836;4.330;2023-05-20T11:31:31;27.90;61.60
23120;DHT22;11729;50.836;4.330;2023-05-20T11:34:00;27.50;61.30
23120;DHT22;11729;50.836;4.330;2023-05-20T11:36:27;27.40;62.20
23120;DHT22;11729;50.836;4.330;2023-05-20T11:38:58;27.50;60.00
23120;DHT22;11729;50.836;4.330;2023-05-20T11:41:27;27.30;63.00
23120;DHT22;11729;50.836;4.330;2023-05-20T11:43:57;27.30;62.10
23120;DHT22;11729;50.836;4.330;2023-05-20T11:46:23;27.80;62.60
23120;DHT22;11729;50.836;4.330;2023-05-20T11:48:53;27.50;60.50
23120;DHT22;11729;50.836;4.330;2023-05-20T11:51:28;27.60;61.70
23120;DHT22;11729;50.836;4.330;2023-05-20T11:54:05;27.90;63.10
23120;DHT22;11729;50.836;4.330;2023-05-20T11:56:35;28.10;59.60
23120;DHT22;11729;50.836;4.330;2023-05-20T11:59:03;28.40;62.60
23120;DHT22;11729;50.836;4.330;2023-05-20T12:01:30;28.70;63.40
23120;DHT22;11729;50.836;4.330;2023-05-20T12:03:58;29.30;60.60
23120;DHT22;11729;50.836;4.330;2023-05-20T12:06:24;28.90;60.80
23120;DHT22;11729;50.836;4.330;2023-05-20T12:08:49;29.30;61.50
23120;DHT22;11729;50.836;4.330;2023-05-20T12:11:15;29.30;58.00
23120;DHT22;11729;50.836;4.330;2023-05-20T12:13:41;29.40;59.70
23120;DHT22;11729;50.836;4.330;2023-05-20T12:16:07;29.50;59.30
23120;DHT22;11729;50.836;4.330;2023-05-20T12:18:33;28.90;58.80
23120;DHT22;11729;50.836;4.330;2023-05-20T12:21:00;28.60;58.50
23120;DHT22;11729;50.836;4.330;2023-05-20T12:23:25;27.30;62.60
23120;DHT22;11729;50.836;4.330;2023-05-20T12:25:51;26.90;63.00
23120;DHT22;11729;50.836;4.330;2023-05-20T12:28:18;26.80;64.20
23120;DHT22;11729;50.836;4.330;2023-05-20T12:30:43;26.70;62.90
23120;DHT22;11729;50.836;4.330;2023-05-20T12:33:10;26.80;62.80
23120;DHT22;11729;50.836;4.330;2023-05-20T12:35:38;26.30;64.50
23120;DHT22;11729;50.836;4.330;2023-05-20T12:38:05;26.60;66.10
23120;DHT22;11729;50.836;4.330;2023-05-20T12:40:31;27.20;65.30
23120;DHT22;11729;50.836;4.330;2023-05-20T12:42:57;27.10;65.60
23120;DHT22;11729;50.836;4.330;2023-05-20T12:45:23;27.90;63.60
23120;DHT22;11729;50.836;4.330;2023-05-20T12:47:49;29.00;60.30
23120;DHT22;11729;50.836;4.330;2023-05-20T12:50:15;28.90;57.80
23120;DHT22;11729;50.836;4.330;2023-05-20T12:52:41;29.00;60.40
23120;DHT22;11729;50.836;4.330;2023-05-20T12:55:07;29.60;60.40
23120;DHT22;11729;50.836;4.330;2023-05-20T12:57:42;28.40;59.20
23120;DHT22;11729;50.836;4.330;2023-05-20T13:00:08;27.80;60.70
23120;DHT22;11729;50.836;4.330;2023-05-20T13:02:36;27.00;62.80
23120;DHT22;11729;50.836;4.330;2023-05-20T13:05:02;25.80;65.30
23120;DHT22;11729;50.836;4.330;2023-05-20T13:07:28;25.40;67.00
23120;DHT22;11729;50.836;4.330;2023-05-20T13:09:54;24.80;66.70
23120;DHT22;11729;50.836;4.330;2023-05-20T13:12:19;25.10;68.60
23120;DHT22;11729;50.836;4.330;2023-05-20T13:14:45;26.00;71.10
23120;DHT22;11729;50.836;4.330;2023-05-20T13:17:11;26.70;67.60
23120;DHT22;11729;50.836;4.330;2023-05-20T13:19:37;27.20;66.00
23120;DHT22;11729;50.836;4.330;2023-05-20T13:22:03;26.60;66.20
23120;DHT22;11729;50.836;4.330;2023-05-20T13:24:30;26.10;66.70
23120;DHT22;11729;50.836;4.330;2023-05-20T13:26:56;26.30;66.50
23120;DHT22;11729;50.836;4.330;2023-05-20T13:29:22;25.20;67.60
23120;DHT22;11729;50.836;4.330;2023-05-20T13:31:47;24.70;71.10
23120;DHT22;11729;50.836;4.330;2023-05-20T13:34:14;24.50;72.60
23120;DHT22;11729;50.836;4.330;2023-05-20T13:36:40;24.80;73.20
23120;DHT22;11729;50.836;4.330;2023-05-20T13:39:06;25.10;72.40
23120;DHT22;11729;50.836;4.330;2023-05-20T13:41:31;25.10;70.70
23120;DHT22;11729;50.836;4.330;2023-05-20T13:43:57;25.00;73.60
23120;DHT22;11729;50.836;4.330;2023-05-20T13:46:23;24.80;71.30
23120;DHT22;11729;50.836;4.330;2023-05-20T13:48:49;24.90;74.30
23120;DHT22;11729;50.836;4.330;2023-05-20T13:51:14;25.20;74.10
23120;DHT22;11729;50.836;4.330;2023-05-20T13:53:40;25.00;70.00
23120;DHT22;11729;50.836;4.330;2023-05-20T13:56:06;25.10;69.20
23120;DHT22;11729;50.836;4.330;2023-05-20T13:58:34;24.70;70.10
23120;DHT22;11729;50.836;4.330;2023-05-20T14:01:01;24.10;72.00
23120;DHT22;11729;50.836;4.330;2023-05-20T14:03:28;24.10;74.70
23120;DHT22;11729;50.836;4.330;2023-05-20T14:05:54;23.90;73.20
23120;DHT22;11729;50.836;4.330;2023-05-20T14:08:20;23.50;74.00
23120;DHT22;11729;50.836;4.330;2023-05-20T14:10:46;23.40;76.20
23120;DHT22;11729;50.836;4.330;2023-05-20T14:13:12;23.40;76.50
23120;DHT22;11729;50.836;4.330;2023-05-20T14:15:37;23.30;76.80
23120;DHT22;11729;50.836;4.330;2023-05-20T14:18:03;23.00;77.00
23120;DHT22;11729;50.836;4.330;2023-05-20T14:20:29;23.20;80.80
23120;DHT22;11729;50.836;4.330;2023-05-20T14:22:54;23.20;78.90
23120;DHT22;11729;50.836;4.330;2023-05-20T14:25:20;23.40;81.50
23120;DHT22;11729;50.836;4.330;2023-05-20T14:27:46;23.50;80.30
23120;DHT22;11729;50.836;4.330;2023-05-20T14:30:12;23.30;79.80
23120;DHT22;11729;50.836;4.330;2023-05-20T14:32:37;23.60;80.30
23120;DHT22;11729;50.836;4.330;2023-05-20T14:35:03;23.60;79.30
23120;DHT22;11729;50.836;4.330;2023-05-20T14:37:29;23.60;79.70
23120;DHT22;11729;50.836;4.330;2023-05-20T14:39:56;23.40;79.70
23120;DHT22;11729;50.836;4.330;2023-05-20T14:42:22;23.20;80.50
23120;DHT22;11729;50.836;4.330;2023-05-20T14:44:48;22.90;80.40
23120;DHT22;11729;50.836;4.330;2023-05-20T14:47:13;22.90;82.30
23120;DHT22;11729;50.836;4.330;2023-05-20T14:49:44;22.70;82.10
23120;DHT22;11729;50.836;4.330;2023-05-20T14:52:11;22.80;83.40
23120;DHT22;11729;50.836;4.330;2023-05-20T14:54:37;22.50;84.40
23120;DHT22;11729;50.836;4.330;2023-05-20T14:57:03;22.50;85.00
23120;DHT22;11729;50.836;4.330;2023-05-20T14:59:32;22.50;85.50
23120;DHT22;11729;50.836;4.330;2023-05-20T15:01:58;22.60;85.00
23120;DHT22;11729;50.836;4.330;2023-05-20T15:04:24;22.60;86.40
23120;DHT22;11729;50.836;4.330;2023-05-20T15:06:50;22.70;85.00
23120;DHT22;11729;50.836;4.330;2023-05-20T15:09:16;22.70;87.80
23120;DHT22;11729;50.836;4.330;2023-05-20T15:11:42;22.80;85.30
23120;DHT22;11729;50.836;4.330;2023-05-20T15:14:08;22.80;87.10
23120;DHT22;11729;50.836;4.330;2023-05-20T15:16:33;23.00;85.30
23120;DHT22;11729;50.836;4.330;2023-05-20T15:19:00;22.60;85.40
23120;DHT22;11729;50.836;4.330;2023-05-20T15:21:26;22.60;87.30
23120;DHT22;11729;50.836;4.330;2023-05-20T15:23:51;22.60;88.20
23120;DHT22;11729;50.836;4.330;2023-05-20T15:26:17;22.70;88.30
23120;DHT22;11729;50.836;4.330;2023-05-20T15:28:43;22.90;86.90
23120;DHT22;11729;50.836;4.330;2023-05-20T15:31:08;22.50;87.20
23120;DHT22;11729;50.836;4.330;2023-05-20T15:33:34;22.50;88.40
23120;DHT22;11729;50.836;4.330;2023-05-20T15:36:00;22.70;87.60
23120;DHT22;11729;50.836;4.330;2023-05-20T15:38:25;23.10;89.60
23120;DHT22;11729;50.836;4.330;2023-05-20T15:40:51;23.00;86.70
23120;DHT22;11729;50.836;4.330;2023-05-20T15:43:17;23.10;90.00